• Join FlightAware (Why Join?)
  • Login
  • US Flag 
02:22AM EDT


 

Airport Tracker/Info


-or-


 

Live Flight TrackerFlight Track Log ✈ RAX1022 ✈ 21-Aug-2013 ✈ KMDT - KPTK

Flight Track Log - Related Links

Times and Time Zones

All times are in EDT time to prevent confusion due to time zone crossing. See the RAX1022 flight status page for this flight to view local times or setup timezone preferences in your user account.

Time Position Orientation Groundspeed Altitude Reporting Facility
EDT Latitude Longitude Course Direction KTS MPH feet Rate Location/Type
07:26PM 40.3396 -77.1358 300° West  Level FlightAware Approximate
07:27PM 40.3677 -77.2002 300° West  Level FlightAware Approximate
07:28PM 40.3961 -77.2654 300° West  Level FlightAware Approximate
07:28PM 40.4083 -77.2994 293° West 200 230 6,000  Level New York Center
07:29PM 40.4245 -77.3307 300° West  Level FlightAware Approximate
07:30PM 40.4528 -77.3961 300° West  Level FlightAware Approximate
07:30PM 40.4319 -77.3617 297° West 200 230 5,900  Level New York Center
07:30PM 40.4611 -77.4328 298° West 200 230 5,900  Level New York Center
07:31PM 40.4811 -77.4615 300° West  Level FlightAware Approximate
07:31PM 40.4831 -77.4894 297° West 209 241 5,900  Level New York Center
07:32PM 40.5075 -77.5282 297° West  Level FlightAware Approximate
07:32PM 40.5086 -77.5519 298° West 209 241 5,900  Level New York Center
07:33PM 40.5338 -77.5951 297° West  Level FlightAware Approximate
07:34PM 40.5342 -77.6172 297° West 204 235 5,900  Level New York Center
07:34PM 40.5619 -77.6747 302° West 204 235 6,000 60 Climbing New York Center
07:35PM 40.5919 -77.7353 303° West 209 241 6,100  Climbing New York Center
07:36PM 40.6128 -77.8031 292° West 204 235 6,000 -60 Descending New York Center
07:38PM 40.6339 -77.8681 293° West 199 229 6,000  Level New York Center
07:38PM 40.6636 -77.9286 303° West 199 229 6,000  Level New York Center
07:40PM 40.6933 -77.9892 303° West 199 229 6,000  Level New York Center
07:40PM 40.7208 -78.0525 300° West 199 229 6,000  Level New York Center
07:41PM 40.7386 -78.1058 294° West 199 229 6,000  Level Cleveland Center
07:42PM 40.7608 -78.1708 294° West 199 229 6,000  Level Cleveland Center
07:43PM 40.7850 -78.2331 297° West 199 229 6,000 -60 Level Cleveland Center
07:44PM 40.8156 -78.2950 303° West 199 229 5,900  Descending Cleveland Center
07:45PM 40.8356 -78.3628 291° West 199 229 6,100 60 Climbing Cleveland Center
07:46PM 40.8556 -78.4253 293° West 193 222 6,100 -60 Level Cleveland Center
07:47PM 40.8839 -78.4903 300° West 193 222 6,000 -60 Descending Cleveland Center
07:48PM 40.9122 -78.5500 302° West 193 222 6,000  Level Cleveland Center
07:49PM 40.9342 -78.6206 292° West 199 229 6,000  Level Cleveland Center
07:50PM 40.9603 -78.6831 299° West 199 229 6,100  Climbing Cleveland Center
07:51PM 40.9883 -78.7456 301° West 199 229 6,100 -60 Level Cleveland Center
07:52PM 41.0125 -78.8111 296° West 199 229 6,000  Descending Cleveland Center
07:53PM 41.0383 -78.8764 298° West 199 229 6,100  Climbing Cleveland Center
07:54PM 41.0644 -78.9389 299° West 199 229 6,100 -60 Level Cleveland Center
07:55PM 41.0903 -78.9989 300° West 199 229 6,000  Descending Cleveland Center
07:56PM 41.1139 -79.0617 297° West 194 223 6,100  Climbing Cleveland Center
07:57PM 41.1419 -79.1300 299° West 194 223 6,100  Level Cleveland Center
07:58PM 41.1658 -79.1958 296° West 194 223 6,100  Level Cleveland Center
07:59PM 41.1872 -79.2614 293° West 194 223 6,100 -60 Level Cleveland Center
08:00PM 41.2089 -79.3217 296° West 201 231 6,000 -60 Descending Cleveland Center
08:01PM 41.2347 -79.3875 298° West 201 231 6,000  Level Cleveland Center
08:02PM 41.2581 -79.4506 296° West 196 226 6,000  Level Cleveland Center
08:03PM 41.2839 -79.5139 299° West 196 226 6,100  Climbing Cleveland Center
08:04PM 41.3114 -79.5797 299° West 196 226 6,000  Descending Cleveland Center
08:05PM 41.3369 -79.6428 298° West 196 226 6,100  Climbing Cleveland Center
08:06PM 41.3583 -79.7089 293° West 196 226 6,100  Level Cleveland Center
08:07PM 41.3797 -79.7750 293° West 196 226 6,100 -120 Level Cleveland Center
08:08PM 41.4053 -79.8439 296° West 196 226 5,900 -60 Descending Cleveland Center
08:09PM 41.4306 -79.9047 299° West 196 226 6,000  Climbing Cleveland Center
08:10PM 41.4600 -79.9681 302° West 196 226 6,000 -60 Level Cleveland Center
08:12PM 41.4800 -80.0650 296° West  Level FlightAware Approximate
08:19PM 41.6504 -80.5344 297° West  Level FlightAware Approximate
08:20PM 41.6756 -80.6010 297° West  Level FlightAware Approximate
08:21PM 41.7007 -80.6677 297° West  Level FlightAware Approximate
08:22PM 41.7258 -80.7344 297° West  Level FlightAware Approximate
08:22PM 41.7306 -80.7250 294° West 198 228 5,900  Level Cleveland Center
08:23PM 41.7509 -80.8011 297° West  Level FlightAware Approximate
08:23PM 41.7533 -80.7836 298° West 197 227 5,900  Level Cleveland Center
08:23PM 41.7658 -80.8336 289° West 211 243 6,000 60 Climbing Cleveland Center
08:24PM 41.7759 -80.8680 297° West  Level FlightAware Approximate
08:24PM 41.7867 -80.8950 294° West 211 243 6,000  Level Cleveland Center
08:25PM 41.8009 -80.9348 297° West  Level FlightAware Approximate
08:25PM 41.8114 -80.9592 297° West 205 236 6,000  Level Cleveland Center
08:26PM 41.8259 -81.0017 297° West  Level FlightAware Approximate
08:26PM 41.8342 -81.0236 295° West 200 230 5,900  Level Cleveland Center
08:27PM 41.8507 -81.0687 294° West  Level FlightAware Approximate
08:27PM 41.8567 -81.0878 295° West 194 223 5,900  Level Cleveland Center
08:28PM 41.8836 -81.1550 298° West 194 223 5,900  Level Cleveland Center
08:29PM 41.9061 -81.2164 296° West 194 223 5,900  Level Cleveland Center
08:30PM 41.9308 -81.2836 296° West 194 223 6,000  Climbing Cleveland Center
08:31PM 41.9511 -81.3481 293° West 194 223 5,900  Descending Cleveland Center
08:32PM 41.9778 -81.4128 299° West 194 223 6,000  Climbing Cleveland Center
08:33PM 42.0003 -81.4772 295° West 194 223 6,000  Level Cleveland Center
08:34PM 42.0164 -81.5361 290° West 194 223 6,100  Climbing Cleveland Center
08:35PM 42.0367 -81.6064 291° West 194 223 6,000 -120 Descending Cleveland Center
08:36PM 42.0592 -81.6683 296° West 189 217 5,900  Descending Cleveland Center
08:37PM 42.0897 -81.7303 304° West 195 224 6,000  Climbing Cleveland Center
08:38PM 42.1142 -81.7950 297° West 200 230 6,000  Level Cleveland Center
08:39PM 42.1361 -81.8628 294° West 200 230 6,000 -60 Level Cleveland Center
08:40PM 42.1606 -81.9306 296° West 195 224 5,900  Descending Cleveland Center
08:41PM 42.1847 -82.0011 295° West 195 224 6,000  Climbing Cleveland Center
08:42PM 42.2047 -82.0717 291° West 195 224 6,000  Level Cleveland Center
08:43PM 42.2225 -82.1281 293° West 195 224 6,000  Level Cleveland Center
08:44PM 42.2486 -82.2044 295° West 195 224 6,000  Level Cleveland Center
08:45PM 42.2747 -82.2697 298° West 195 224 6,000  Level Cleveland Center
08:46PM 42.2989 -82.3350 297° West 195 224 6,000 -60 Level Cleveland Center
08:47PM 42.3250 -82.3975 299° West 200 230 5,900 -240 Descending Cleveland Center
08:48PM 42.3508 -82.4683 296° West 200 230 5,600 -420 Descending Cleveland Center
08:49PM 42.3728 -82.5253 298° West 207 238 5,200 -420 Descending Cleveland Center
08:50PM 42.3883 -82.5933 287° West 205 236 5,000 -240 Descending Cleveland Center
08:51PM 42.4144 -82.6531 301° West 203 234 4,800 -300 Descending Cleveland Center
08:51PM 42.4222 -82.6786 292° West 200 230 4,600 -420 Descending Cleveland Center
08:52PM 42.4425 -82.7214 303° West 204 235 4,400 -420 Descending Cleveland Center
08:53PM 42.4725 -82.7844 303° West 207 238 4,000 -180 Descending Cleveland Center
08:54PM 42.4983 -82.8531 297° West 201 231 4,100  Climbing Cleveland Center
08:55PM 42.5197 -82.9269 291° West 202 232 4,000 -120 Descending Cleveland Center
08:56PM 42.5475 -82.9928 300° West 202 232 3,900 -360 Descending Cleveland Center
08:57PM 42.5708 -83.0700 292° West 214 246 3,300 -540 Descending Cleveland Center
08:58PM 42.5964 -83.1414 296° West 209 241 2,900 -420 Descending Cleveland Center
08:59PM 42.6139 -83.2014 292° West 195 224 2,600 -360 Descending Cleveland Center
09:00PM 42.6331 -83.2756 289° West 201 231 2,300 -360 Descending Cleveland Center
09:01PM 42.6547 -83.3303 298° West 150 173 2,000 -420 Descending Cleveland Center
09:02PM 42.6658 -83.3786 287° West 116 133 1,500 -480 Descending Cleveland Center
09:04PM 42.6500 -83.4167 270° West  Level FlightAware Approximate
09:11PM 42.6656 -83.4205 270° West  Level Estimated